Time;durP1;ratioP1;P1;durP2;ratioP2;P2;SDS_P1;SDS_P2;PMS_P1;PMS_P2;Temp;Humidity;BMP_temperature;BMP_pressure;BME280_temperature;BME280_humidity;BME280_pressure;Samples;Min_cycle;Max_cycle;Signal;HPM_P1;HPM_P2
2022/08/26 00:01:24;;;;;;;15.05;6.75;;;;;;;19.42;100.00;101344.72;5035886;28;20045;-85
2022/08/26 00:03:50;;;;;;;17.20;6.53;;;;;;;19.46;100.00;101354.66;5030793;28;20025;-85
2022/08/26 00:06:15;;;;;;;13.93;6.63;;;;;;;19.40;100.00;101346.94;5030801;28;20048;-85
2022/08/26 00:08:42;;;;;;;15.97;6.90;;;;;;;19.39;100.00;101350.75;5031825;28;20029;-85
2022/08/26 00:11:07;;;;;;;15.98;6.43;;;;;;;19.38;100.00;101371.69;5030324;28;20748;-85
2022/08/26 00:13:35;;;;;;;15.38;6.65;;;;;;;19.40;100.00;101366.75;5012939;28;20032;-85
2022/08/26 00:16:01;;;;;;;14.98;6.40;;;;;;;19.35;100.00;101361.44;5030711;28;20040;-85
2022/08/26 00:18:27;;;;;;;17.58;6.63;;;;;;;19.28;100.00;101356.41;5030657;28;20561;-85
2022/08/26 00:20:52;;;;;;;11.70;6.40;;;;;;;19.30;100.00;101365.06;5029893;28;20116;-85
2022/08/26 00:23:18;;;;;;;16.60;6.87;;;;;;;19.28;100.00;101361.03;5030973;28;20030;-85
2022/08/26 00:25:43;;;;;;;14.52;6.43;;;;;;;19.25;100.00;101369.78;5044684;28;20043;-85
2022/08/26 00:28:09;;;;;;;19.10;6.97;;;;;;;19.21;100.00;101364.16;5049054;28;20139;-85
2022/08/26 00:30:34;;;;;;;16.27;6.93;;;;;;;19.18;100.00;101376.44;5049544;28;20083;-85
2022/08/26 00:33:01;;;;;;;16.47;7.53;;;;;;;19.13;100.00;101365.69;5032267;28;20029;-85
2022/08/26 00:35:28;;;;;;;16.63;7.43;;;;;;;19.09;100.00;101364.69;5050297;28;20037;-85
2022/08/26 00:37:55;;;;;;;17.30;7.65;;;;;;;19.10;100.00;101374.44;5050295;28;20028;-85
2022/08/26 00:40:25;;;;;;;22.75;8.15;;;;;;;19.08;100.00;101371.22;5049826;28;20086;-85
2022/08/26 00:42:50;;;;;;;18.45;7.55;;;;;;;19.03;100.00;101374.03;5047463;28;20112;-85
2022/08/26 00:45:16;;;;;;;15.37;8.57;;;;;;;19.04;100.00;101378.34;5049705;28;20108;-85
2022/08/26 00:47:51;;;;;;;18.13;8.43;;;;;;;19.01;100.00;101373.53;5049925;28;20036;-85
2022/08/26 00:50:30;;;;;;;19.50;8.77;;;;;;;19.00;100.00;101371.91;5049739;28;20391;-85
2022/08/26 00:52:57;;;;;;;13.43;8.05;;;;;;;18.98;100.00;101376.88;5049548;28;20090;-85
2022/08/26 00:55:32;;;;;;;17.88;8.52;;;;;;;19.03;100.00;101382.16;5050313;28;20033;-85
2022/08/26 00:57:59;;;;;;;13.95;7.78;;;;;;;18.95;100.00;101375.53;5024258;28;20084;-85
2022/08/26 01:00:28;;;;;;;17.30;8.35;;;;;;;18.89;100.00;101372.09;5049166;28;20493;-85
2022/08/26 01:02:54;;;;;;;16.00;7.57;;;;;;;18.91;100.00;101374.50;5048999;28;20071;-85
2022/08/26 01:05:21;;;;;;;16.67;8.10;;;;;;;18.91;100.00;101371.78;5038710;28;20295;-85
2022/08/26 01:07:49;;;;;;;14.60;7.22;;;;;;;18.83;100.00;101365.13;5030011;28;20036;-85
2022/08/26 01:10:19;;;;;;;13.05;6.28;;;;;;;18.83;100.00;101377.91;5029254;28;20474;-85
2022/08/26 01:12:48;;;;;;;13.70;6.25;;;;;;;18.80;100.00;101373.09;5029947;28;20033;-86
2022/08/26 01:15:19;;;;;;;16.10;6.60;;;;;;;18.77;100.00;101369.88;5038060;28;20063;-85
2022/08/26 01:17:45;;;;;;;11.13;5.20;;;;;;;18.80;100.00;101373.91;5030449;28;20120;-85
2022/08/26 01:20:40;;;;;;;16.05;6.28;;;;;;;18.80;100.00;101379.34;5029097;28;20108;-85
2022/08/26 01:23:07;;;;;;;14.13;5.80;;;;;;;18.80;100.00;101373.09;5029265;28;20029;-85
2022/08/26 01:25:37;;;;;;;10.57;5.53;;;;;;;18.77;100.00;101378.00;5044274;28;20029;-85
2022/08/26 01:28:07;;;;;;;15.83;6.37;;;;;;;18.74;100.00;101366.94;5049422;28;20833;-85
2022/08/26 01:30:33;;;;;;;14.55;5.97;;;;;;;18.83;100.00;101384.13;5049226;28;20095;-85
2022/08/26 01:33:02;;;;;;;16.00;5.88;;;;;;;18.88;100.00;101384.06;5035223;28;20125;-85
2022/08/26 01:35:28;;;;;;;13.18;5.97;;;;;;;18.89;100.00;101365.88;5031416;28;20105;-85
2022/08/26 01:37:55;;;;;;;13.35;5.20;;;;;;;18.94;100.00;101365.75;5029702;28;20029;-85
2022/08/26 01:40:25;;;;;;;15.32;5.35;;;;;;;18.95;100.00;101372.03;5029011;28;20076;-85
2022/08/26 01:42:52;;;;;;;14.20;4.88;;;;;;;18.96;100.00;101376.34;5029534;28;20056;-85
2022/08/26 01:45:21;;;;;;;12.90;4.80;;;;;;;18.97;100.00;101378.75;5029692;28;20068;-85
2022/08/26 01:47:49;;;;;;;15.75;4.93;;;;;;;18.97;100.00;101377.97;5029856;28;20034;-85
2022/08/26 01:50:23;;;;;;;9.90;4.57;;;;;;;18.99;100.00;101381.19;5029754;28;20489;-85
2022/08/26 01:52:50;;;;;;;14.23;5.03;;;;;;;18.96;100.00;101371.72;5036897;28;20283;-85
2022/08/26 01:55:17;;;;;;;13.25;5.20;;;;;;;18.86;100.00;101378.13;5049534;28;20035;-85
2022/08/26 01:57:46;;;;;;;13.63;5.32;;;;;;;18.87;100.00;101374.28;5049572;28;20036;-85
2022/08/26 02:00:13;;;;;;;15.75;5.40;;;;;;;18.89;100.00;101384.88;5048837;28;20089;-85
2022/08/26 02:02:43;;;;;;;12.18;4.95;;;;;;;18.85;100.00;101373.78;5049292;28;20384;-85
2022/08/26 02:05:14;;;;;;;10.98;4.35;;;;;;;18.85;100.00;101373.78;5049080;28;20433;-85
2022/08/26 02:07:40;;;;;;;12.05;4.70;;;;;;;18.82;100.00;101373.59;5034219;28;20500;-85
2022/08/26 02:10:09;;;;;;;10.13;4.23;;;;;;;18.77;100.00;101375.28;5027808;28;20038;-85
2022/08/26 02:12:35;;;;;;;10.70;4.38;;;;;;;18.82;100.00;101379.03;5029002;28;20496;-86
2022/08/26 02:15:04;;;;;;;8.95;4.55;;;;;;;18.80;100.00;101387.47;5032678;28;20044;-85
2022/08/26 02:17:38;;;;;;;12.55;3.90;;;;;;;18.78;100.00;101378.81;5033107;28;20471;-85
2022/08/26 02:20:03;;;;;;;10.20;3.95;;;;;;;18.82;100.00;101384.47;5032002;28;20040;-85
2022/08/26 02:22:29;;;;;;;10.13;3.83;;;;;;;18.82;100.00;101390.66;5033156;28;20025;-85
2022/08/26 02:24:58;;;;;;;9.30;4.35;;;;;;;18.80;100.00;101390.19;5034264;28;20026;-85
2022/08/26 02:27:28;;;;;;;10.05;3.95;;;;;;;18.82;100.00;101392.59;5032790;28;20057;-85
2022/08/26 02:30:10;;;;;;;10.07;4.15;;;;;;;18.77;100.00;101397.00;5032208;28;20029;-85
2022/08/26 02:32:36;;;;;;;14.02;3.80;;;;;;;18.77;100.00;101399.72;5032371;28;20053;-85
2022/08/26 02:35:01;;;;;;;7.20;3.67;;;;;;;18.77;100.00;101398.94;5032581;28;20481;-85
2022/08/26 02:37:29;;;;;;;11.57;3.73;;;;;;;18.76;100.00;101400.81;5032591;28;20055;-85
2022/08/26 02:39:55;;;;;;;13.80;3.58;;;;;;;18.80;100.00;101411.91;5033372;28;20041;-84
2022/08/26 02:42:20;;;;;;;9.80;3.07;;;;;;;18.79;100.00;101412.19;5032617;28;20397;-85
2022/08/26 02:44:46;;;;;;;7.55;2.63;;;;;;;18.81;100.00;101402.63;5050341;28;20032;-85
2022/08/26 02:47:13;;;;;;;7.33;3.10;;;;;;;18.80;100.00;101408.38;5052411;28;20396;-84
2022/08/26 02:49:40;;;;;;;8.93;2.90;;;;;;;18.75;100.00;101395.72;5052259;28;20290;-84
2022/08/26 02:52:05;;;;;;;9.55;3.30;;;;;;;18.74;100.00;101399.53;5051243;28;20018;-84
2022/08/26 02:54:31;;;;;;;10.30;2.93;;;;;;;18.64;100.00;101386.94;5052039;28;20036;-84
2022/08/26 02:56:56;;;;;;;9.07;2.70;;;;;;;18.66;100.00;101395.59;5050566;28;20132;-84
2022/08/26 02:59:22;;;;;;;8.17;2.97;;;;;;;18.55;100.00;101380.59;5032922;28;20017;-87
2022/08/26 03:01:48;;;;;;;6.97;2.60;;;;;;;18.60;100.00;101392.19;5031557;28;20028;-84
2022/08/26 03:04:14;;;;;;;9.27;2.55;;;;;;;18.55;100.00;101392.25;5032173;28;20037;-85
2022/08/26 03:06:39;;;;;;;7.95;2.90;;;;;;;18.46;100.00;101385.88;5014258;28;20030;-84
2022/08/26 03:09:05;;;;;;;7.80;2.93;;;;;;;18.49;100.00;101390.72;5031896;28;20769;-84
2022/08/26 03:11:30;;;;;;;12.20;2.65;;;;;;;18.46;100.00;101403.00;5031298;28;20650;-84
2022/08/26 03:13:56;;;;;;;10.83;2.87;;;;;;;18.48;100.00;101404.59;5015669;28;20032;-84
2022/08/26 03:16:22;;;;;;;12.05;2.80;;;;;;;18.47;100.00;101403.78;5032121;28;20583;-84
2022/08/26 03:18:47;;;;;;;9.97;2.57;;;;;;;18.46;100.00;101396.75;5038378;28;20032;-84
2022/08/26 03:21:15;;;;;;;9.10;2.77;;;;;;;18.42;100.00;101387.59;5051423;28;20025;-84
2022/08/26 03:23:42;;;;;;;7.82;2.90;;;;;;;18.52;100.00;101408.34;5051449;28;20167;-84
2022/08/26 03:26:09;;;;;;;6.65;2.35;;;;;;;18.54;100.00;101406.09;5032615;28;20384;-84
2022/08/26 03:28:35;;;;;;;8.13;2.65;;;;;;;18.59;100.00;101398.69;5033828;28;20469;-84
2022/08/26 03:31:00;;;;;;;12.80;2.43;;;;;;;18.64;100.00;101403.22;5046671;28;20098;-84
2022/08/26 03:33:26;;;;;;;6.07;2.38;;;;;;;18.72;100.00;101402.53;5031570;28;20087;-86
2022/08/26 03:35:53;;;;;;;7.37;2.27;;;;;;;18.79;100.00;101410.31;5031255;28;20033;-84
2022/08/26 03:38:21;;;;;;;5.32;2.20;;;;;;;18.83;100.00;101411.28;5031730;28;20028;-85
2022/08/26 03:40:46;;;;;;;8.85;2.30;;;;;;;18.87;100.00;101415.03;5030625;28;20029;-84
2022/08/26 03:43:14;;;;;;;6.18;2.08;;;;;;;18.82;100.00;101398.81;5031235;28;20439;-85
2022/08/26 03:45:40;;;;;;;9.52;2.22;;;;;;;18.91;100.00;101410.59;5031452;28;20033;-85
2022/08/26 03:48:05;;;;;;;5.90;1.90;;;;;;;18.90;100.00;101411.72;5046900;28;20021;-85
2022/08/26 03:50:31;;;;;;;5.27;2.30;;;;;;;18.92;100.00;101411.41;5050885;28;20050;-85
2022/08/26 03:52:56;;;;;;;6.57;2.35;;;;;;;18.89;100.00;101401.16;5050999;28;20025;-85
2022/08/26 03:55:26;;;;;;;7.90;2.00;;;;;;;18.89;100.00;101406.59;5051313;28;20063;-85
2022/08/26 03:57:52;;;;;;;5.32;2.30;;;;;;;18.80;100.00;101403.78;5050997;28;20036;-85
2022/08/26 04:00:18;;;;;;;11.83;2.40;;;;;;;18.82;100.00;101409.69;5033614;28;20049;-85
2022/08/26 04:02:45;;;;;;;10.40;2.17;;;;;;;18.76;100.00;101410.91;5053470;28;20021;-85
2022/08/26 04:05:13;;;;;;;8.85;2.15;;;;;;;18.77;100.00;101409.78;5044140;28;20033;-85
2022/08/26 04:07:40;;;;;;;7.43;2.17;;;;;;;18.72;100.00;101396.31;5034278;28;20034;-86
2022/08/26 04:10:06;;;;;;;4.82;1.92;;;;;;;18.80;100.00;101414.63;5031200;28;20029;-85
2022/08/26 04:12:32;;;;;;;9.15;1.90;;;;;;;18.79;100.00;101410.31;5032710;28;20025;-85
2022/08/26 04:14:57;;;;;;;6.83;2.00;;;;;;;18.81;100.00;101410.78;5038496;28;20054;-85
2022/08/26 04:17:24;;;;;;;9.23;2.00;;;;;;;18.89;100.00;101406.59;5050764;28;20021;-85
2022/08/26 04:19:52;;;;;;;8.73;2.20;;;;;;;18.90;100.00;101406.28;5049906;28;20029;-85
2022/08/26 04:22:18;;;;;;;11.38;2.05;;;;;;;18.95;100.00;101415.47;5039603;28;20091;-85
2022/08/26 04:24:44;;;;;;;7.13;1.92;;;;;;;18.93;100.00;101404.88;5046196;28;20033;-85
2022/08/26 04:27:09;;;;;;;8.57;2.03;;;;;;;18.97;100.00;101410.56;5031083;28;20033;-84
2022/08/26 04:29:34;;;;;;;4.45;1.75;;;;;;;18.99;100.00;101411.06;5030665;28;20043;-84
2022/08/26 04:32:01;;;;;;;8.10;1.97;;;;;;;19.01;100.00;101406.94;5029554;28;20092;-85
2022/08/26 04:34:27;;;;;;;8.40;2.30;;;;;;;19.02;100.00;101410.44;5030316;28;20036;-84
2022/08/26 04:36:53;;;;;;;7.28;1.90;;;;;;;19.01;100.00;101406.94;5030037;28;20021;-84
2022/08/26 04:39:19;;;;;;;10.83;2.13;;;;;;;19.02;100.00;101408.53;5041124;28;20033;-85
2022/08/26 04:41:46;;;;;;;11.30;2.50;;;;;;;18.99;100.00;101408.34;5049033;28;20091;-85
2022/08/26 04:44:12;;;;;;;9.68;2.50;;;;;;;18.99;100.00;101409.13;5049208;28;20036;-85
2022/08/26 04:46:38;;;;;;;5.85;2.30;;;;;;;19.04;100.00;101419.09;5021969;28;20021;-85
2022/08/26 04:49:07;;;;;;;7.88;2.00;;;;;;;19.07;100.00;101415.78;5050043;28;20033;-85
2022/08/26 04:51:33;;;;;;;13.67;2.37;;;;;;;19.04;100.00;101411.75;5049564;28;20031;-85
2022/08/26 04:53:58;;;;;;;5.97;2.10;;;;;;;19.13;100.00;101424.63;5049906;28;20700;-85
2022/08/26 04:56:25;;;;;;;9.52;2.70;;;;;;;19.09;100.00;101418.19;5036739;28;20112;-85
2022/08/26 04:58:52;;;;;;;10.13;2.38;;;;;;;19.10;100.00;101425.22;5029441;28;20025;-85
2022/08/26 05:01:19;;;;;;;9.77;2.43;;;;;;;19.09;100.00;101421.72;5028964;28;20075;-85
2022/08/26 05:03:45;;;;;;;8.47;2.57;;;;;;;19.12;100.00;101418.41;5029290;28;20644;-85
2022/08/26 05:06:11;;;;;;;7.90;2.72;;;;;;;19.10;100.00;101412.47;5029064;28;20021;-85
2022/08/26 05:08:36;;;;;;;7.10;3.03;;;;;;;19.16;100.00;101427.56;5028930;28;20052;-85
2022/08/26 05:11:05;;;;;;;5.50;2.40;;;;;;;19.13;100.00;101422.72;5036733;28;20036;-85
2022/08/26 05:13:32;;;;;;;6.55;2.60;;;;;;;19.07;100.00;101413.06;5030265;28;20041;-85
2022/08/26 05:16:02;;;;;;;13.25;2.92;;;;;;;19.12;100.00;101423.84;5029350;28;20025;-85
2022/08/26 05:18:29;;;;;;;21.90;3.80;;;;;;;19.10;100.00;101423.31;5029584;28;20397;-86
2022/08/26 05:20:54;;;;;;;8.85;2.60;;;;;;;19.11;100.00;101422.22;5012403;28;21854;-89
2022/08/26 05:23:24;;;;;;;8.30;2.30;;;;;;;19.13;99.94;101421.91;5048668;28;20037;-86
2022/08/26 05:25:52;;;;;;;10.60;2.90;;;;;;;19.13;100.00;101425.44;5048693;28;20275;-87
2022/08/26 05:28:18;;;;;;;12.35;2.63;;;;;;;19.15;100.00;101431.38;5049203;28;20052;-87
2022/08/26 05:30:44;;;;;;;8.40;2.67;;;;;;;19.15;100.00;101428.66;5024397;28;20021;-86
2022/08/26 05:33:10;;;;;;;9.07;2.60;;;;;;;19.16;100.00;101429.47;5049455;28;20111;-85
2022/08/26 05:35:37;;;;;;;7.10;2.50;;;;;;;19.18;100.00;101428.03;5031953;28;20029;-88
2022/08/26 05:38:06;;;;;;;8.90;2.25;;;;;;;19.31;99.95;101433.78;5049097;28;20059;-87
2022/08/26 05:40:34;;;;;;;7.50;2.60;;;;;;;19.27;99.64;101428.13;5029269;28;20037;-89
2022/08/26 05:42:59;;;;;;;7.50;2.47;;;;;;;19.24;99.25;101427.94;5029273;28;20036;-87
2022/08/26 05:45:26;;;;;;;7.27;2.53;;;;;;;19.40;99.13;101439.31;5029534;28;20030;-87
2022/08/26 05:47:51;;;;;;;11.15;2.33;;;;;;;19.49;98.87;101435.59;5030652;28;20033;-88
2022/08/26 05:50:20;;;;;;;9.97;2.33;;;;;;;19.55;98.08;101441.72;5032654;28;20384;-86
2022/08/26 05:52:48;;;;;;;9.88;2.30;;;;;;;19.56;97.64;101445.22;5033466;28;20370;-85
2022/08/26 05:55:13;;;;;;;6.50;2.00;;;;;;;19.63;97.00;101451.06;5033299;28;20033;-87
2022/08/26 05:57:39;;;;;;;6.20;2.30;;;;;;;19.67;97.36;101449.34;5033668;28;20025;-86
2022/08/26 06:00:04;;;;;;;5.50;1.90;;;;;;;19.78;96.43;101448.00;5042646;28;20029;-86
2022/08/26 06:02:30;;;;;;;7.43;2.20;;;;;;;19.87;96.13;101459.00;5053074;28;20025;-87
2022/08/26 06:04:55;;;;;;;5.40;1.87;;;;;;;19.90;95.25;101463.84;5036507;28;20055;-88
2022/08/26 06:08:09;;;;;;;6.30;2.00;;;;;;;19.94;95.30;101472.19;5043131;28;20036;-87
2022/08/26 06:10:06;;;;;;;8.35;1.80;;;;;;;19.89;95.18;101475.81;5051476;28;20064;-86
2022/08/26 06:12:32;;;;;;;7.87;1.90;;;;;;;19.87;94.95;101474.50;5052882;28;20032;-88
2022/08/26 06:15:00;;;;;;;9.30;1.90;;;;;;;19.92;95.09;101474.41;5052839;28;20396;-88
2022/08/26 06:17:25;;;;;;;192.18;7.28;;;;;;;19.96;94.83;101467.25;5035161;28;20021;-88
2022/08/26 06:19:50;;;;;;;24.10;2.10;;;;;;;20.02;94.31;101476.91;5050948;28;20041;-85
2022/08/26 06:27:44;;;;;;;5.28;1.67;;;;;;;20.15;93.49;101488.03;5032261;28;20044;-86
2022/08/26 06:30:09;;;;;;;6.67;1.90;;;;;;;20.21;92.58;101495.00;5048971;28;20017;-88
2022/08/26 06:32:35;;;;;;;6.22;1.73;;;;;;;20.20;92.54;101482.50;5034407;28;20044;-86
2022/08/26 06:35:00;;;;;;;7.57;1.50;;;;;;;20.29;92.10;101486.06;5043561;28;20040;-87
2022/08/26 06:37:25;;;;;;;7.20;1.60;;;;;;;20.38;91.11;101489.69;5052865;28;20051;-86
2022/08/26 06:39:50;;;;;;;6.17;1.40;;;;;;;20.33;90.74;101484.34;5051650;28;20477;-87
2022/08/26 06:42:16;;;;;;;6.95;1.70;;;;;;;20.31;91.00;101502.91;5051723;28;20031;-86
2022/08/26 06:44:41;;;;;;;6.70;1.73;;;;;;;20.29;91.12;101477.91;5050426;28;20028;-87
2022/08/26 06:47:07;;;;;;;6.13;1.60;;;;;;;20.55;90.28;101493.66;5049738;28;20119;-88
2022/08/26 06:49:32;;;;;;;8.53;1.33;;;;;;;20.69;89.32;101499.03;5052174;28;20440;-87
2022/08/26 06:51:57;;;;;;;4.93;1.70;;;;;;;20.78;88.39;101483.56;5037315;28;20805;-88
2022/08/26 06:54:22;;;;;;;5.60;1.60;;;;;;;20.87;86.96;101494.50;5049683;28;20033;-87
2022/08/26 06:56:48;;;;;;;5.93;1.57;;;;;;;20.81;87.06;101498.50;5021687;28;20025;-90
2022/08/26 06:59:14;;;;;;;3.87;1.20;;;;;;;20.87;87.20;101494.50;5051863;28;20025;-89
2022/08/26 07:01:43;;;;;;;3.20;1.30;;;;;;;20.94;86.99;101504.97;5051297;28;20473;-87
2022/08/26 07:04:10;;;;;;;5.80;1.30;;;;;;;20.95;86.37;101510.09;5051062;28;20035;-87
2022/08/26 07:06:39;;;;;;;7.93;1.60;;;;;;;20.90;86.34;101512.97;5043888;28;20288;-85
2022/08/26 07:09:06;;;;;;;9.07;1.40;;;;;;;20.84;86.37;101495.13;5048880;28;20078;-88
2022/08/26 07:11:33;;;;;;;8.23;1.30;;;;;;;20.85;86.50;101504.91;5051909;28;20158;-87
2022/08/26 07:13:59;;;;;;;5.55;1.40;;;;;;;20.84;86.17;101501.41;5055982;28;20137;-86
2022/08/26 07:16:26;;;;;;;7.88;1.63;;;;;;;20.95;85.62;101499.22;5052387;28;20052;-87
2022/08/26 07:18:52;;;;;;;5.63;1.35;;;;;;;21.02;85.27;101496.03;5033868;28;20032;-88
2022/08/26 07:21:19;;;;;;;6.47;1.55;;;;;;;21.21;85.43;101503.19;5051641;28;20128;-87
2022/08/26 07:23:45;;;;;;;6.28;1.60;;;;;;;21.23;84.16;101503.66;5050366;28;20388;-87
2022/08/26 07:26:16;;;;;;;5.77;1.47;;;;;;;21.25;84.17;101499.50;5051496;28;20032;-87
2022/08/26 07:28:43;;;;;;;7.32;1.50;;;;;;;21.31;83.51;101505.63;5051836;28;20029;-88
2022/08/26 07:31:10;;;;;;;6.35;1.60;;;;;;;21.37;82.61;101523.44;5032769;28;20082;-88
2022/08/26 07:33:37;;;;;;;8.60;1.58;;;;;;;21.29;82.98;101521.47;5051521;28;20067;-87
2022/08/26 07:36:04;;;;;;;8.48;1.80;;;;;;;21.16;83.21;101524.00;5051019;28;20017;-87
2022/08/26 07:38:29;;;;;;;8.93;1.38;;;;;;;21.07;83.58;101508.72;5034016;28;20033;-88
2022/08/26 07:40:54;;;;;;;5.93;1.20;;;;;;;21.15;83.60;101516.13;5045092;28;20108;-88
2022/08/26 07:43:20;;;;;;;5.97;1.20;;;;;;;21.17;82.83;101524.81;5051326;28;20028;-87
2022/08/26 07:45:46;;;;;;;7.97;1.52;;;;;;;;;;5051376;28;20047;-87
2022/08/26 07:48:11;;;;;;;8.03;1.50;;;;;;;21.28;82.19;101528.84;5051016;28;20029;-88
2022/08/26 07:50:38;;;;;;;6.50;1.80;;;;;;;21.39;81.66;101531.28;5050732;28;20025;-87
2022/08/26 07:53:04;;;;;;;7.03;1.38;;;;;;;21.41;81.32;101523.59;5050841;28;20049;-88
2022/08/26 07:55:29;;;;;;;6.10;1.50;;;;;;;21.53;80.48;101537.47;5050193;28;20107;-87
2022/08/26 07:57:55;;;;;;;6.40;1.60;;;;;;;21.57;80.09;101529.44;5050807;28;20276;-90
2022/08/26 08:00:21;;;;;;;6.13;1.60;;;;;;;21.58;79.06;101531.84;5050586;28;20028;-88
2022/08/26 08:02:46;;;;;;;7.65;1.45;;;;;;;21.57;79.75;101538.41;5050771;28;20021;-87
2022/08/26 08:05:15;;;;;;;4.07;1.57;;;;;;;21.61;79.08;101536.72;5050820;28;20473;-88
2022/08/26 08:07:40;;;;;;;4.82;1.73;;;;;;;21.59;78.97;101538.91;5051003;28;20496;-88
2022/08/26 08:10:07;;;;;;;10.55;1.40;;;;;;;21.54;78.97;101539.06;5049996;28;20078;-87
2022/08/26 08:12:32;;;;;;;6.90;1.30;;;;;;;21.41;79.24;101538.06;5037289;28;20385;-88
2022/08/26 08:14:58;;;;;;;6.05;1.67;;;;;;;21.35;80.10;101539.31;5030514;28;20021;-87
2022/08/26 08:17:23;;;;;;;5.43;1.93;;;;;;;21.39;80.18;101537.56;5030853;28;20483;-87
2022/08/26 08:19:48;;;;;;;4.00;1.60;;;;;;;21.62;79.59;101535.59;5029835;28;20018;-88
2022/08/26 08:22:15;;;;;;;4.83;1.23;;;;;;;21.72;78.93;101539.16;5031073;28;20033;-88
2022/08/26 08:24:41;;;;;;;8.48;1.30;;;;;;;21.84;79.06;101535.78;5030867;28;20059;-87
2022/08/26 08:27:07;;;;;;;4.55;1.23;;;;;;;21.84;77.75;101544.78;5041981;28;20149;-88
2022/08/26 08:29:35;;;;;;;5.68;1.38;;;;;;;21.95;78.18;101542.56;5048496;28;20037;-88
2022/08/26 08:32:02;;;;;;;6.70;1.35;;;;;;;22.11;77.71;101545.63;5049740;28;20063;-88
2022/08/26 08:34:27;;;;;;;6.57;1.48;;;;;;;22.32;77.11;101554.00;5050817;28;20091;-88
2022/08/26 08:36:53;;;;;;;6.83;1.50;;;;;;;22.43;76.12;101550.97;5050297;28;20413;-88
2022/08/26 08:39:19;;;;;;;5.15;1.40;;;;;;;22.50;75.52;101552.09;5050987;28;20025;-88
2022/08/26 08:42:16;;;;;;;8.00;1.43;;;;;;;22.50;74.84;101562.25;5051120;28;20028;-88
2022/08/26 08:44:45;;;;;;;7.30;1.50;;;;;;;22.24;75.19;101541.97;5048323;28;20037;-88
2022/08/26 08:47:22;;;;;;;6.38;1.38;;;;;;;22.36;75.55;101538.59;5055071;28;20029;-88
2022/08/26 08:49:48;;;;;;;3.97;1.48;;;;;;;22.31;74.93;101540.66;5050482;28;20036;-88
2022/08/26 08:52:34;;;;;;;6.90;1.53;;;;;;;22.32;75.56;101545.81;5033713;28;20028;-89
2022/08/26 08:55:00;;;;;;;10.20;1.75;;;;;;;22.28;74.43;101546.75;5050477;28;20393;-88
2022/08/26 08:57:48;;;;;;;6.63;1.30;;;;;;;22.15;74.93;101551.28;5050163;28;20120;-88
2022/08/26 09:00:17;;;;;;;6.63;1.45;;;;;;;22.03;74.61;101539.03;5044220;28;20400;-88
2022/08/26 09:02:58;;;;;;;7.10;1.25;;;;;;;22.04;75.30;101551.56;5030766;28;20036;-88
2022/08/26 09:05:28;;;;;;;6.03;1.70;;;;;;;21.96;75.04;101548.81;5012425;28;20458;-88
2022/08/26 09:08:05;;;;;;;8.32;1.65;;;;;;;21.91;74.79;101547.84;5030042;28;20391;-88
2022/08/26 09:10:39;;;;;;;5.43;1.38;;;;;;;22.02;75.28;101553.00;5029680;28;20104;-87
2022/08/26 09:13:10;;;;;;;5.33;1.10;;;;;;;22.21;74.26;101544.50;5029966;28;20029;-87
2022/08/26 09:16:00;;;;;;;4.87;1.40;;;;;;;22.44;73.32;101552.59;5030017;28;20276;-88
2022/08/26 09:18:56;;;;;;;5.90;1.45;;;;;;;22.62;72.99;101561.59;5026993;28;20824;-88
2022/08/26 09:21:23;;;;;;;4.00;1.27;;;;;;;22.80;72.55;101560.44;5049633;28;20037;-88
2022/08/26 09:23:49;;;;;;;12.18;1.95;;;;;;;22.89;70.82;101565.06;5051435;28;20108;-88
2022/08/26 09:26:24;;;;;;;5.65;1.52;;;;;;;22.91;70.92;101560.91;5054311;28;20400;-88
2022/08/26 09:28:58;;;;;;;8.50;1.77;;;;;;;22.80;71.07;101567.81;5053522;28;20395;-88
2022/08/26 09:31:26;;;;;;;7.93;1.40;;;;;;;22.76;71.17;101558.66;5053561;28;20075;-87
2022/08/26 09:34:17;;;;;;;4.65;1.50;;;;;;;22.73;71.72;101554.66;5032646;28;20027;-89
2022/08/26 09:36:46;;;;;;;8.55;1.40;;;;;;;22.60;71.68;101561.09;5034134;28;20030;-88
2022/08/26 09:39:26;;;;;;;8.60;1.30;;;;;;;22.60;72.24;101572.03;5033349;28;20116;-88
2022/08/26 09:42:09;;;;;;;4.33;1.43;;;;;;;22.53;72.13;101567.84;5033288;28;20280;-89
2022/08/26 09:44:50;;;;;;;4.32;1.30;;;;;;;22.40;72.04;101568.78;5035640;28;20565;-88
2022/08/26 09:47:22;;;;;;;6.15;1.65;;;;;;;22.26;73.23;101574.38;5036407;28;20026;-87
2022/08/26 09:50:04;;;;;;;6.28;1.67;;;;;;;22.42;72.50;101566.56;5015554;28;20033;-88
2022/08/26 09:52:29;;;;;;;5.70;1.70;;;;;;;22.39;71.98;101565.25;5035678;28;20034;-89
2022/08/26 09:55:01;;;;;;;6.20;1.60;;;;;;;22.46;71.84;101566.72;5033176;28;20462;-88
2022/08/26 09:57:33;;;;;;;4.82;1.50;;;;;;;22.45;72.30;101565.13;5033603;28;20030;-87
2022/08/26 10:00:00;;;;;;;8.95;1.88;;;;;;;22.36;72.67;101574.09;5032989;28;20029;-88
2022/08/26 10:02:31;;;;;;;9.35;1.70;;;;;;;22.18;73.35;101567.00;5033296;28;20079;-87
2022/08/26 10:04:59;;;;;;;6.18;1.67;;;;;;;22.21;73.66;101566.34;5033385;28;20026;-88
2022/08/26 10:07:47;;;;;;;10.43;1.65;;;;;;;22.18;74.05;101573.25;5015211;28;20096;-88
2022/08/26 10:10:16;;;;;;;10.45;1.70;;;;;;;22.11;73.77;101575.66;5032654;28;20052;-88
2022/08/26 10:13:11;;;;;;;7.22;1.40;;;;;;;22.12;73.71;101571.78;5032996;28;20021;-87
2022/08/26 10:15:44;;;;;;;8.37;1.80;;;;;;;22.00;73.81;101571.63;5032954;28;20099;-87
2022/08/26 10:18:23;;;;;;;9.30;1.93;;;;;;;22.00;74.45;101582.53;5032552;28;20628;-88
2022/08/26 10:21:01;;;;;;;7.03;1.58;;;;;;;21.87;74.55;101573.34;5032217;28;20026;-88
2022/08/26 10:23:31;;;;;;;8.35;1.90;;;;;;;21.75;75.08;101566.59;5040684;28;20032;-87
2022/08/26 10:26:07;;;;;;;6.93;1.63;;;;;;;21.80;74.81;101573.81;5051227;28;20488;-87
2022/08/26 10:28:46;;;;;;;6.28;1.52;;;;;;;21.69;75.45;101567.84;5052710;28;20440;-87
2022/08/26 10:31:22;;;;;;;7.55;1.60;;;;;;;21.70;75.07;101571.38;5051668;28;20037;-89
2022/08/26 10:33:47;;;;;;;7.32;1.80;;;;;;;21.67;74.72;101572.81;5051970;28;20074;-88
2022/08/26 10:36:48;;;;;;;10.60;1.73;;;;;;;21.83;74.22;101578.66;5035050;28;20041;-88
2022/08/26 10:39:22;;;;;;;4.60;1.20;;;;;;;22.20;73.67;101570.19;5050638;28;20106;-87
2022/08/26 10:41:52;;;;;;;6.05;1.20;;;;;;;22.18;72.52;101567.81;5032775;28;20432;-87
2022/08/26 10:44:19;;;;;;;7.07;1.40;;;;;;;22.18;71.52;101567.00;5052643;28;20030;-88
2022/08/26 10:46:57;;;;;;;6.78;1.45;;;;;;;22.37;71.64;101569.44;5049813;28;20123;-86
2022/08/26 10:49:23;;;;;;;11.20;1.70;;;;;;;22.36;70.93;101559.63;5032525;28;20033;-85
2022/08/26 10:52:09;;;;;;;4.50;1.10;;;;;;;22.59;71.00;101559.50;5031477;28;20104;-85
2022/08/26 10:54:45;;;;;;;10.07;1.63;;;;;;;22.64;69.65;101570.28;5032569;28;20029;-85
2022/08/26 10:57:26;;;;;;;6.28;2.08;;;;;;;22.75;69.97;101579.72;5031976;28;20033;-87
2022/08/26 11:03:05;;;;;;;11.20;1.80;;;;;;;22.67;69.64;101577.78;5032204;28;20357;-87
2022/08/26 11:05:31;;;;;;;6.93;1.90;;;;;;;22.72;69.94;101576.84;5032816;28;20146;-87
2022/08/26 11:08:18;;;;;;;7.43;1.38;;;;;;;22.49;70.43;101572.34;5032079;28;20236;-87
2022/08/26 11:10:55;;;;;;;7.90;1.60;;;;;;;22.50;70.81;101578.63;5031724;28;20431;-86
2022/08/26 11:13:56;;;;;;;7.78;1.50;;;;;;;22.44;70.76;101580.72;5034786;28;20448;-87
2022/08/26 11:16:40;;;;;;;10.57;1.83;;;;;;;22.34;70.68;101573.59;5014353;28;20408;-86
2022/08/26 11:19:08;;;;;;;5.45;1.50;;;;;;;22.33;70.42;101579.38;5043292;28;20443;-87
2022/08/26 11:22:09;;;;;;;5.80;1.48;;;;;;;22.40;70.48;101585.16;5051685;28;20105;-88
2022/08/26 11:24:38;;;;;;;6.67;1.47;;;;;;;22.48;70.14;101575.41;5051995;28;20029;-88
2022/08/26 11:27:03;;;;;;;8.67;1.40;;;;;;;22.49;70.02;101575.06;5051724;28;20271;-88
2022/08/26 11:29:56;;;;;;;10.85;1.60;;;;;;;22.43;70.36;101562.72;5051641;28;20055;-88
2022/08/26 11:32:45;;;;;;;6.50;1.67;;;;;;;22.65;70.19;101580.84;5032098;28;20130;-88
2022/08/26 11:35:33;;;;;;;7.90;1.37;;;;;;;22.90;69.30;101572.16;5050779;28;20303;-87
2022/08/26 11:38:13;;;;;;;11.10;1.73;;;;;;;22.84;68.44;101571.53;5051084;28;20036;-87